Main page
METAR-TAF:

METAR-TAF

Airports :

Gibraltar International Airport

Gibraltar, Gibraltar

latitude: 36-09N, longitude: 005-21W, elevation: 5 m

Current weather observation

The report was made 31 minutes ago, at 07:20 UTC
Wind 6 kt from the West/Southwest
Temperature 23°C
Humidity 65%
Pressure 1013 hPa
Visibility 10 km or more
no clouds below 1500 m and no cumulonimbus

METAR: LXGB 180720Z 24006KT CAVOK 23/16 Q1013 NOSIG RMK BLU BLU

Time: 09:51 (07:51 UTC)

Forecast

The report was made 2 hours and 56 minutes ago, at 04:55 UTC
Forecast valid from 18 at 06 UTC to 18 at 15 UTC
Wind 8 kt from the West
Visibility 10 km or more
Few clouds at a height of 500 ft
Temporary
from 18 at 09 UTC to 18 at 15 UTC
Wind 15 kt from the South

TAF: LXGB 180455Z 1806/1815 27008KT 9999 FEW005 TEMPO 1809/1815 19015KT 520001

Weather observations and forecasts of more than 4000 airports (METAR and TAF reports).

The available stations are represented by yellow and red dots on the map.

Hover mouse over dot to see the name of the station.

Then click to see weather observations and forecasts.

To change the map : click on the green buttons with a black cross to zoom in, on the green button with a dash to zoom out, or on the green arrows for adjacent maps.


METAR-TAF: